createdAt,value
2017-10-04T00:01:56.532Z,95024.77
2017-10-04T00:04:24.328Z,95031.56
2017-10-04T00:06:52.008Z,95023.07
2017-10-04T00:09:19.780Z,95027.80
2017-10-04T00:11:47.462Z,95023.56
2017-10-04T00:14:15.138Z,95024.63
2017-10-04T00:16:42.850Z,95033.80
2017-10-04T00:19:10.548Z,95044.11
2017-10-04T00:21:38.267Z,95030.59
2017-10-04T00:24:05.958Z,95024.80
2017-10-04T00:26:33.688Z,95021.56
2017-10-04T00:29:01.374Z,95031.30
2017-10-04T00:31:29.073Z,95024.23
2017-10-04T00:33:56.837Z,95022.80
2017-10-04T00:36:24.579Z,95030.31
2017-10-04T00:38:52.340Z,95028.26
2017-10-04T00:41:20.107Z,95032.84
2017-10-04T00:43:47.810Z,95036.98
2017-10-04T00:46:15.602Z,95029.73
2017-10-04T00:48:43.394Z,95021.80
2017-10-04T00:51:11.105Z,95036.98
2017-10-04T00:53:38.775Z,95041.03
2017-10-04T00:56:06.604Z,95035.69
2017-10-04T00:58:35.419Z,95034.17
2017-10-04T01:01:03.118Z,95030.31
2017-10-04T01:03:30.863Z,95032.50
2017-10-04T01:05:58.603Z,95040.55
2017-10-04T01:08:26.363Z,95031.39
2017-10-04T01:10:54.034Z,95031.83
2017-10-04T01:13:21.897Z,95028.77
2017-10-04T01:15:49.608Z,95025.97
2017-10-04T01:18:17.341Z,95027.07
2017-10-04T01:20:45.129Z,95025.16
2017-10-04T01:23:12.824Z,95026.17
2017-10-04T01:25:40.530Z,95020.94
2017-10-04T01:28:08.362Z,95025.81
2017-10-04T01:30:36.080Z,95023.90
2017-10-04T01:33:03.820Z,95029.02
2017-10-04T01:35:31.568Z,95026.19
2017-10-04T01:37:59.224Z,95040.41
2017-10-04T01:40:26.900Z,95038.46
2017-10-04T01:42:55.537Z,95048.59
2017-10-04T01:45:23.192Z,95047.70
2017-10-04T01:47:50.907Z,95045.02
2017-10-04T01:50:18.716Z,95059.73
2017-10-04T01:52:46.409Z,95057.83
2017-10-04T01:55:14.162Z,95066.00
2017-10-04T01:57:41.831Z,95060.32
2017-10-04T02:00:09.501Z,95066.68
2017-10-04T02:02:37.217Z,95060.23
2017-10-04T02:05:04.908Z,95060.33
2017-10-04T02:07:32.684Z,95063.81
2017-10-04T02:10:00.385Z,95060.75
2017-10-04T02:12:28.216Z,95067.83
2017-10-04T02:14:55.899Z,95058.97
2017-10-04T02:17:23.716Z,95064.55
2017-10-04T02:19:51.420Z,95063.06
2017-10-04T02:22:19.065Z,95068.07
2017-10-04T02:24:46.734Z,95063.91
2017-10-04T02:27:14.479Z,95069.80
2017-10-04T02:29:42.198Z,95067.55
2017-10-04T02:32:09.892Z,95068.34
2017-10-04T02:34:37.607Z,95066.67
2017-10-04T02:37:05.304Z,95061.96
2017-10-04T02:39:33.010Z,95066.92
2017-10-04T02:42:00.716Z,95068.19
2017-10-04T02:44:28.435Z,95063.13
2017-10-04T02:46:56.142Z,95065.47
2017-10-04T02:49:24.049Z,95059.12
2017-10-04T02:51:51.770Z,95049.23
2017-10-04T02:54:19.442Z,95051.94
2017-10-04T02:56:47.146Z,95047.56
2017-10-04T02:59:14.968Z,95044.08
2017-10-04T03:01:42.650Z,95043.12
2017-10-04T03:04:10.333Z,95038.23
2017-10-04T03:06:38.072Z,95050.74
2017-10-04T03:09:06.450Z,95041.86
2017-10-04T03:11:34.433Z,95045.91
2017-10-04T03:14:02.143Z,95037.38
2017-10-04T03:16:29.896Z,95036.77
2017-10-04T03:18:57.686Z,95035.34
2017-10-04T03:21:25.394Z,95038.47
2017-10-04T03:23:53.055Z,95037.64
2017-10-04T03:26:20.792Z,95045.27
2017-10-04T03:28:48.463Z,95038.31
2017-10-04T03:31:16.140Z,95033.58
2017-10-04T03:33:44.274Z,95026.30
2017-10-04T03:36:12.034Z,95026.18
2017-10-04T03:38:39.747Z,95030.20
2017-10-04T03:41:07.466Z,95027.30
2017-10-04T03:43:35.147Z,95028.31
2017-10-04T03:46:02.981Z,95029.77
2017-10-04T03:48:30.640Z,95027.33
2017-10-04T03:50:58.339Z,95031.91
2017-10-04T03:53:26.108Z,95037.22
2017-10-04T03:55:53.868Z,95040.52
2017-10-04T03:58:21.560Z,95042.22
2017-10-04T04:00:49.242Z,95040.98
2017-10-04T04:03:16.970Z,95039.02
2017-10-04T04:05:44.725Z,95043.38
2017-10-04T04:08:12.493Z,95041.14
2017-10-04T04:10:40.230Z,95043.83
2017-10-04T04:13:07.907Z,95048.28
2017-10-04T04:15:35.644Z,95041.91
2017-10-04T04:18:03.338Z,95037.89
2017-10-04T04:20:31.062Z,95038.97
2017-10-04T04:22:58.806Z,95036.78
2017-10-04T04:25:26.507Z,95046.36
2017-10-04T04:27:54.172Z,95047.20
2017-10-04T04:30:21.875Z,95047.11
2017-10-04T04:32:49.628Z,95047.11
2017-10-04T04:35:17.354Z,95061.87
2017-10-04T04:37:45.189Z,95070.88
2017-10-04T04:40:12.944Z,95070.92
2017-10-04T04:42:40.645Z,95072.94
2017-10-04T04:45:08.370Z,95071.59
2017-10-04T04:47:36.119Z,95076.34
2017-10-04T04:50:03.839Z,95082.48
2017-10-04T04:52:31.569Z,95074.85
2017-10-04T04:54:59.494Z,95080.60
2017-10-04T04:57:27.235Z,95081.91
2017-10-04T04:59:55.032Z,95071.55
2017-10-04T05:02:22.865Z,95081.47
2017-10-04T05:04:50.574Z,95070.86
2017-10-04T05:07:18.266Z,95069.05
2017-10-04T05:09:45.999Z,95067.20
2017-10-04T05:12:13.744Z,95064.07
2017-10-04T05:14:41.471Z,95063.06
2017-10-04T05:17:09.135Z,95067.40
2017-10-04T05:19:36.829Z,95073.67
2017-10-04T05:22:04.489Z,95075.45
2017-10-04T05:24:32.217Z,95072.53
2017-10-04T05:26:59.963Z,95082.47
2017-10-04T05:29:27.641Z,95078.02
2017-10-04T05:31:55.302Z,95077.39
2017-10-04T05:34:23.005Z,95077.66
2017-10-04T05:36:50.723Z,95081.62
2017-10-04T05:39:18.409Z,95080.52
2017-10-04T05:41:46.132Z,95082.17
2017-10-04T05:44:13.800Z,95079.85
2017-10-04T05:46:41.541Z,95085.27
2017-10-04T05:49:09.246Z,95085.89
2017-10-04T05:51:36.961Z,95084.66
2017-10-04T05:54:04.690Z,95084.20
2017-10-04T05:56:32.366Z,95083.17
2017-10-04T05:59:00.113Z,95081.28
2017-10-04T06:01:28.135Z,95082.89
2017-10-04T06:03:55.824Z,95083.03
2017-10-04T06:06:23.544Z,95075.11
2017-10-04T06:08:51.928Z,95084.80
2017-10-04T06:11:19.679Z,95091.06
2017-10-04T06:13:47.440Z,95087.19
2017-10-04T06:16:15.164Z,95084.53
2017-10-04T06:18:42.913Z,95085.42
2017-10-04T06:21:10.626Z,95088.09
2017-10-04T06:23:38.329Z,95093.31
2017-10-04T06:26:06.084Z,95097.33
2017-10-04T06:28:33.806Z,95099.19
2017-10-04T06:31:01.585Z,95095.78
2017-10-04T06:33:29.280Z,95091.58
2017-10-04T06:35:57.114Z,95090.23
2017-10-04T06:38:24.870Z,95086.63
2017-10-04T06:40:52.572Z,95090.20
2017-10-04T06:43:20.279Z,95084.68
2017-10-04T06:45:48.008Z,95082.72
2017-10-04T06:48:15.698Z,95074.02
2017-10-04T06:50:43.462Z,95072.13
2017-10-04T06:53:12.084Z,95064.16
2017-10-04T06:55:39.827Z,95071.78
2017-10-04T06:58:07.561Z,95070.82
2017-10-04T07:00:35.288Z,95065.50
2017-10-04T07:03:02.977Z,95069.28
2017-10-04T07:05:30.748Z,95067.56
2017-10-04T07:07:58.538Z,95072.02
2017-10-04T07:10:27.208Z,95074.61
2017-10-04T07:12:54.987Z,95078.08
2017-10-04T07:15:22.706Z,95075.98
2017-10-04T07:17:50.575Z,95079.01
2017-10-04T07:20:18.324Z,95071.68
2017-10-04T07:22:46.085Z,95068.91
2017-10-04T07:25:13.755Z,95063.91
2017-10-04T07:27:41.440Z,95067.92
2017-10-04T07:30:09.390Z,95063.57
2017-10-04T07:32:37.149Z,95063.53
2017-10-04T07:35:04.830Z,95067.20
2017-10-04T07:37:32.643Z,95063.77
2017-10-04T07:40:00.613Z,95063.16
2017-10-04T07:42:28.334Z,95061.91
2017-10-04T07:44:56.108Z,95056.45
2017-10-04T07:47:23.797Z,95056.42
2017-10-04T07:49:51.553Z,95055.21
2017-10-04T07:52:19.220Z,95052.06
2017-10-04T07:54:46.963Z,95057.64
2017-10-04T07:57:14.643Z,95050.20
2017-10-04T07:59:42.384Z,95055.31
2017-10-04T08:02:10.162Z,95053.22
2017-10-04T08:04:37.876Z,95055.72
2017-10-04T08:07:05.531Z,95050.55
2017-10-04T08:09:33.268Z,95049.86
2017-10-04T08:12:01.451Z,95040.33
2017-10-04T08:14:29.136Z,95042.88
2017-10-04T08:16:57.403Z,95045.84
2017-10-04T08:19:25.165Z,95037.38
2017-10-04T08:21:53.650Z,95040.10
2017-10-04T08:24:21.421Z,95036.68
2017-10-04T08:26:49.135Z,95028.06
2017-10-04T08:29:16.922Z,95025.77
2017-10-04T08:31:44.836Z,95026.17
2017-10-04T08:34:12.532Z,95018.47
2017-10-04T08:36:40.253Z,95013.81
2017-10-04T08:39:08.022Z,95014.63
2017-10-04T08:41:35.735Z,95006.89
2017-10-04T08:44:03.494Z,95007.44
2017-10-04T08:46:31.239Z,95002.55
2017-10-04T08:48:59.042Z,94998.44
2017-10-04T08:51:26.762Z,95000.77
2017-10-04T08:53:54.557Z,95003.34
2017-10-04T08:56:22.290Z,95010.00
2017-10-04T08:58:50.012Z,95006.41
2017-10-04T09:01:17.874Z,95000.33
2017-10-04T09:03:45.604Z,95000.36
2017-10-04T09:06:14.273Z,94995.48
2017-10-04T09:08:41.979Z,94992.60
2017-10-04T09:11:09.749Z,94991.40
2017-10-04T09:13:38.717Z,94978.27
2017-10-04T09:16:06.435Z,94975.84
2017-10-04T09:18:35.614Z,94978.84
2017-10-04T09:21:03.604Z,94975.12
2017-10-04T09:23:31.373Z,94968.16
2017-10-04T09:25:59.079Z,94961.25
2017-10-04T09:28:26.777Z,94958.30
2017-10-04T09:30:56.769Z,94963.13
2017-10-04T09:33:24.480Z,94960.02
2017-10-04T09:35:53.304Z,94951.84
2017-10-04T09:38:21.000Z,94944.38
2017-10-04T09:40:48.756Z,94937.69
2017-10-04T09:43:16.466Z,94945.84
2017-10-04T09:45:44.209Z,94936.52
2017-10-04T09:48:12.031Z,94936.17
2017-10-04T09:50:39.758Z,94940.00
2017-10-04T09:53:07.505Z,94932.86
2017-10-04T09:55:35.203Z,94927.57
2017-10-04T09:58:03.066Z,94924.77
2017-10-04T10:00:30.809Z,94908.94
2017-10-04T10:02:58.501Z,94914.59
2017-10-04T10:05:26.280Z,94912.07
2017-10-04T10:07:53.970Z,94913.36
2017-10-04T10:10:21.727Z,94904.63
2017-10-04T10:12:49.413Z,94892.02
2017-10-04T10:15:17.938Z,94891.23
2017-10-04T10:17:45.685Z,94889.88
2017-10-04T10:20:13.757Z,94881.23
2017-10-04T10:22:41.454Z,94885.80
2017-10-04T10:25:09.193Z,94882.50
2017-10-04T10:27:36.968Z,94880.47
2017-10-04T10:30:04.692Z,94877.64
2017-10-04T10:32:32.392Z,94878.29
2017-10-04T10:35:00.294Z,94877.13
2017-10-04T10:37:28.023Z,94877.26
2017-10-04T10:39:55.738Z,94861.23
2017-10-04T10:42:23.491Z,94857.20
2017-10-04T10:44:51.232Z,94860.69
2017-10-04T10:47:18.989Z,94847.50
2017-10-04T10:49:46.678Z,94846.91
2017-10-04T10:52:14.361Z,94836.56
2017-10-04T10:54:42.076Z,94832.56
2017-10-04T10:57:09.764Z,94822.89
2017-10-04T10:59:37.556Z,94831.82
2017-10-04T11:02:05.349Z,94827.20
2017-10-04T11:04:33.173Z,94826.97
2017-10-04T11:07:00.951Z,94826.72
2017-10-04T11:09:29.589Z,94817.28
2017-10-04T11:11:58.441Z,94811.92
2017-10-04T11:14:26.135Z,94806.02
2017-10-04T11:16:54.730Z,94799.22
2017-10-04T11:19:22.438Z,94804.52
2017-10-04T11:21:50.184Z,94799.47
2017-10-04T11:24:17.896Z,94792.38
2017-10-04T11:26:46.535Z,94785.43
2017-10-04T11:29:14.375Z,94781.19
2017-10-04T11:31:42.174Z,94779.48
2017-10-04T11:34:10.085Z,94771.53
2017-10-04T11:36:39.031Z,94762.34
2017-10-04T11:39:06.873Z,94754.97
2017-10-04T11:41:35.837Z,94753.80
2017-10-04T11:44:03.570Z,94745.76
2017-10-04T11:46:31.320Z,94739.69
2017-10-04T11:48:59.102Z,94749.58
2017-10-04T11:51:26.833Z,94747.07
2017-10-04T11:53:54.626Z,94739.09
2017-10-04T11:56:22.321Z,94741.59
2017-10-04T11:58:50.033Z,94735.16
2017-10-04T12:01:17.865Z,94728.47
2017-10-04T12:03:45.598Z,94726.22
2017-10-04T12:06:13.579Z,94731.28
2017-10-04T12:08:41.323Z,94724.64
2017-10-04T12:11:09.017Z,94715.25
2017-10-04T12:13:36.788Z,94706.34
2017-10-04T12:16:04.502Z,94709.20
2017-10-04T12:18:32.252Z,94697.45
2017-10-04T12:21:00.003Z,94693.69
2017-10-04T12:23:27.773Z,94685.62
2017-10-04T12:25:55.488Z,94691.42
2017-10-04T12:28:23.294Z,94680.69
2017-10-04T12:30:51.107Z,94683.59
2017-10-04T12:33:18.822Z,94675.67
2017-10-04T12:35:47.435Z,94673.17
2017-10-04T12:38:15.182Z,94673.69
2017-10-04T12:40:42.943Z,94675.28
2017-10-04T12:43:10.681Z,94659.34
2017-10-04T12:45:38.440Z,94661.03
2017-10-04T12:48:06.192Z,94667.50
2017-10-04T12:50:33.905Z,94666.83
2017-10-04T12:53:01.649Z,94659.80
2017-10-04T12:55:29.435Z,94650.49
2017-10-04T12:57:57.219Z,94653.33
2017-10-04T13:00:24.966Z,94646.15
2017-10-04T13:02:52.707Z,94640.87
2017-10-04T13:05:20.491Z,94635.86
2017-10-04T13:07:48.303Z,94630.19
2017-10-04T13:10:16.100Z,94632.05
2017-10-04T13:12:43.860Z,94635.98
2017-10-04T13:15:11.555Z,94639.41
2017-10-04T13:17:39.424Z,94632.83
2017-10-04T13:20:07.126Z,94628.61
2017-10-04T13:22:34.825Z,94619.50
2017-10-04T13:25:02.627Z,94606.05
2017-10-04T13:27:30.909Z,94601.14
2017-10-04T13:29:59.109Z,94601.01
2017-10-04T13:32:26.854Z,94602.43
2017-10-04T13:34:54.647Z,94594.84
2017-10-04T13:37:22.562Z,94584.29
2017-10-04T13:39:50.286Z,94575.45
2017-10-04T13:42:18.002Z,94582.54
2017-10-04T13:44:45.825Z,94584.17
2017-10-04T13:47:13.592Z,94582.41
2017-10-04T13:49:41.354Z,94583.42
2017-10-04T13:52:09.152Z,94571.80
2017-10-04T13:54:36.922Z,94574.66
2017-10-04T13:57:04.627Z,94573.92
2017-10-04T13:59:32.345Z,94574.31
2017-10-04T14:02:00.128Z,94567.37
2017-10-04T14:04:27.916Z,94568.09
2017-10-04T14:06:55.717Z,94564.77
2017-10-04T14:09:23.443Z,94561.20
2017-10-04T14:11:52.187Z,94550.92
2017-10-04T14:14:20.014Z,94551.44
2017-10-04T14:16:47.753Z,94559.36
2017-10-04T14:19:15.708Z,94552.91
2017-10-04T14:21:43.471Z,94542.77
2017-10-04T14:24:11.706Z,94526.55
2017-10-04T14:26:39.766Z,94525.09
2017-10-04T14:29:07.709Z,94533.41
2017-10-04T14:31:35.466Z,94528.91
2017-10-04T14:34:03.180Z,94531.52
2017-10-04T14:36:30.997Z,94526.66
2017-10-04T14:38:58.855Z,94536.36
2017-10-04T14:41:27.805Z,94537.70
2017-10-04T14:43:55.618Z,94519.39
2017-10-04T14:46:23.500Z,94530.27
2017-10-04T14:48:52.211Z,94532.57
2017-10-04T14:51:19.952Z,94528.39
2017-10-04T14:53:47.689Z,94527.31
2017-10-04T14:56:15.494Z,94530.80
2017-10-04T14:58:43.236Z,94534.64
2017-10-04T15:01:11.049Z,94526.67
2017-10-04T15:03:38.843Z,94524.43
2017-10-04T15:06:06.540Z,94522.11
2017-10-04T15:08:34.305Z,94528.16
2017-10-04T15:11:02.019Z,94524.38
2017-10-04T15:13:29.797Z,94522.35
2017-10-04T15:15:57.590Z,94524.77
2017-10-04T15:18:25.379Z,94522.48
2017-10-04T15:20:53.145Z,94522.85
2017-10-04T15:23:20.843Z,94533.91
2017-10-04T15:25:48.612Z,94526.65
2017-10-04T15:28:16.412Z,94525.92
2017-10-04T15:30:44.133Z,94528.56
2017-10-04T15:33:11.845Z,94528.37
2017-10-04T15:35:39.709Z,94526.63
2017-10-04T15:38:07.482Z,94521.73
2017-10-04T15:40:35.181Z,94526.61
2017-10-04T15:43:02.940Z,94527.19
2017-10-04T15:45:30.653Z,94527.03
2017-10-04T15:47:58.500Z,94528.28
2017-10-04T15:50:26.247Z,94536.58
2017-10-04T15:52:53.967Z,94539.36
2017-10-04T15:55:21.767Z,94535.39
2017-10-04T15:57:49.468Z,94539.48
2017-10-04T16:00:17.222Z,94543.36
2017-10-04T16:02:45.067Z,94543.05
2017-10-04T16:05:12.933Z,94552.56
2017-10-04T16:07:40.741Z,94555.83
2017-10-04T16:10:08.451Z,94545.81
2017-10-04T16:12:36.227Z,94552.87
2017-10-04T16:15:04.019Z,94546.53
2017-10-04T16:17:31.849Z,94550.78
2017-10-04T16:20:01.295Z,94542.93
2017-10-04T16:22:29.019Z,94549.53
2017-10-04T16:24:56.885Z,94545.55
2017-10-04T16:27:24.698Z,94549.26
2017-10-04T16:29:53.194Z,94546.64
2017-10-04T16:32:21.376Z,94564.14
2017-10-04T16:34:49.196Z,94562.70
2017-10-04T16:37:17.814Z,94555.03
2017-10-04T16:39:45.998Z,94560.73
2017-10-04T16:42:14.706Z,94551.28
2017-10-04T16:44:42.507Z,94557.80
2017-10-04T16:47:10.834Z,94556.80
2017-10-04T16:49:38.628Z,94562.69
2017-10-04T16:52:06.305Z,94566.87
2017-10-04T16:54:34.050Z,94568.30
2017-10-04T16:57:01.847Z,94559.99
2017-10-04T16:59:29.765Z,94559.58
2017-10-04T17:01:57.593Z,94559.63
2017-10-04T17:04:25.310Z,94557.88
2017-10-04T17:06:53.106Z,94566.31
2017-10-04T17:09:20.799Z,94569.89
2017-10-04T17:11:48.460Z,94573.05
2017-10-04T17:14:16.269Z,94572.55
2017-10-04T17:16:45.017Z,94574.87
2017-10-04T17:19:12.739Z,94568.77
2017-10-04T17:21:40.625Z,94575.36
2017-10-04T17:24:08.325Z,94575.89
2017-10-04T17:26:36.020Z,94578.12
2017-10-04T17:29:03.840Z,94585.86
2017-10-04T17:31:31.568Z,94583.42
2017-10-04T17:33:59.257Z,94588.69
2017-10-04T17:36:27.348Z,94584.97
2017-10-04T17:38:55.227Z,94588.28
2017-10-04T17:41:23.014Z,94590.83
2017-10-04T17:43:50.768Z,94588.73
2017-10-04T17:46:18.482Z,94596.91
2017-10-04T17:48:46.344Z,94595.93
2017-10-04T17:51:14.045Z,94600.23
2017-10-04T17:53:41.733Z,94610.95
2017-10-04T17:56:09.498Z,94606.00
2017-10-04T17:58:37.307Z,94608.09
2017-10-04T18:01:05.554Z,94611.72
2017-10-04T18:03:33.703Z,94605.84
2017-10-04T18:06:01.428Z,94610.78
2017-10-04T18:08:29.211Z,94606.20
2017-10-04T18:10:58.402Z,94604.23
2017-10-04T18:13:26.183Z,94606.52
2017-10-04T18:15:54.010Z,94613.90
2017-10-04T18:18:21.982Z,94618.76
2017-10-04T18:20:49.774Z,94609.56
2017-10-04T18:23:17.617Z,94609.38
2017-10-04T18:25:45.368Z,94617.19
2017-10-04T18:28:13.099Z,94614.25
2017-10-04T18:30:40.845Z,94617.05
2017-10-04T18:33:08.566Z,94615.50
2017-10-04T18:35:36.308Z,94621.95
2017-10-04T18:38:04.016Z,94615.83
2017-10-04T18:40:33.039Z,94614.05
2017-10-04T18:43:02.340Z,94620.81
2017-10-04T18:45:30.123Z,94627.14
2017-10-04T18:47:58.152Z,94628.23
2017-10-04T18:50:25.874Z,94634.27
2017-10-04T18:52:53.582Z,94638.89
2017-10-04T18:55:21.424Z,94645.05
2017-10-04T18:57:50.059Z,94650.06
2017-10-04T19:00:17.888Z,94644.25
2017-10-04T19:02:45.626Z,94640.59
2017-10-04T19:05:13.439Z,94644.79
2017-10-04T19:07:41.169Z,94645.48
2017-10-04T19:10:08.945Z,94654.88
2017-10-04T19:12:36.701Z,94661.41
2017-10-04T19:15:04.626Z,94660.50
2017-10-04T19:17:32.425Z,94663.08
2017-10-04T19:20:00.254Z,94660.55
2017-10-04T19:22:28.491Z,94657.75
2017-10-04T19:24:56.350Z,94660.00
2017-10-04T19:27:24.128Z,94660.38
2017-10-04T19:29:51.899Z,94661.86
2017-10-04T19:32:19.658Z,94657.16
2017-10-04T19:34:47.378Z,94658.73
2017-10-04T19:37:15.142Z,94660.08
2017-10-04T19:39:43.804Z,94653.25
2017-10-04T19:42:11.573Z,94658.84
2017-10-04T19:44:40.041Z,94661.73
2017-10-04T19:47:07.744Z,94662.23
2017-10-04T19:49:35.499Z,94663.44
2017-10-04T19:52:03.219Z,94664.28
2017-10-04T19:54:31.007Z,94662.19
2017-10-04T19:56:58.747Z,94657.33
2017-10-04T19:59:26.489Z,94662.58
2017-10-04T20:01:54.196Z,94664.70
2017-10-04T20:04:21.982Z,94657.13
2017-10-04T20:06:49.768Z,94657.52
2017-10-04T20:09:17.454Z,94660.81
2017-10-04T20:11:45.299Z,94652.43
2017-10-04T20:14:13.100Z,94653.70
2017-10-04T20:16:40.915Z,94657.39
2017-10-04T20:19:08.757Z,94666.20
2017-10-04T20:21:36.523Z,94657.02
2017-10-04T20:24:04.473Z,94658.32
2017-10-04T20:26:32.564Z,94656.59
2017-10-04T20:29:01.171Z,94666.91
2017-10-04T20:31:28.935Z,94661.41
2017-10-04T20:33:57.138Z,94658.72
2017-10-04T20:36:24.924Z,94667.42
2017-10-04T20:38:52.740Z,94657.64
2017-10-04T20:41:20.681Z,94657.92
2017-10-04T20:43:49.377Z,94652.03
2017-10-04T20:46:17.485Z,94655.52
2017-10-04T20:48:45.536Z,94656.13
2017-10-04T20:51:13.338Z,94658.94
2017-10-04T20:53:42.088Z,94658.13
2017-10-04T20:56:09.922Z,94662.94
2017-10-04T20:58:37.746Z,94654.05
2017-10-04T21:01:05.565Z,94648.25
2017-10-04T21:03:34.162Z,94649.75
2017-10-04T21:06:01.908Z,94647.66
2017-10-04T21:08:29.679Z,94647.75
2017-10-04T21:10:57.880Z,94657.34
2017-10-04T21:13:25.712Z,94648.77
2017-10-04T21:15:53.482Z,94652.16
2017-10-04T21:18:21.486Z,94653.36
2017-10-04T21:20:49.309Z,94650.97
2017-10-04T21:23:18.229Z,94647.58
2017-10-04T21:25:45.999Z,94640.48
2017-10-04T21:28:13.785Z,94642.07
2017-10-04T21:30:41.529Z,94642.75
2017-10-04T21:33:09.253Z,94634.88
2017-10-04T21:35:36.999Z,94638.88
2017-10-04T21:38:04.692Z,94639.16
2017-10-04T21:40:32.493Z,94646.88
2017-10-04T21:43:00.198Z,94639.30
2017-10-04T21:45:27.900Z,94641.58
2017-10-04T21:47:55.658Z,94642.48
2017-10-04T21:50:23.361Z,94645.17
2017-10-04T21:52:51.037Z,94636.98
2017-10-04T21:55:18.770Z,94628.60
2017-10-04T21:57:46.497Z,94636.88
2017-10-04T22:00:14.235Z,94632.72
2017-10-04T22:02:41.923Z,94639.48
2017-10-04T22:05:09.717Z,94625.53
2017-10-04T22:07:37.392Z,94631.31
2017-10-04T22:10:05.129Z,94633.00
2017-10-04T22:12:32.797Z,94627.61
2017-10-04T22:15:00.542Z,94632.20
2017-10-04T22:17:28.307Z,94631.60
2017-10-04T22:19:57.171Z,94625.92
2017-10-04T22:22:24.939Z,94627.12
2017-10-04T22:24:52.683Z,94624.41
2017-10-04T22:27:20.392Z,94623.02
2017-10-04T22:29:48.099Z,94624.78
2017-10-04T22:32:15.942Z,94617.33
2017-10-04T22:34:43.798Z,94620.83
2017-10-04T22:37:11.499Z,94618.13
2017-10-04T22:39:39.385Z,94625.89
2017-10-04T22:42:07.179Z,94610.66
2017-10-04T22:44:34.892Z,94618.72
2017-10-04T22:47:02.652Z,94616.02
2017-10-04T22:49:30.403Z,94620.09
2017-10-04T22:51:58.135Z,94616.02
2017-10-04T22:54:25.877Z,94613.73
2017-10-04T22:56:53.666Z,94611.34
2017-10-04T22:59:21.627Z,94604.75
2017-10-04T23:01:49.346Z,94608.34
2017-10-04T23:04:17.127Z,94607.43
2017-10-04T23:06:44.860Z,94603.14
2017-10-04T23:09:12.557Z,94602.26
2017-10-04T23:11:40.408Z,94590.41
2017-10-04T23:14:09.387Z,94584.48
2017-10-04T23:16:37.135Z,94586.01
2017-10-04T23:19:04.881Z,94589.40
2017-10-04T23:21:33.450Z,94585.00
2017-10-04T23:24:01.194Z,94582.61
2017-10-04T23:26:28.883Z,94588.75
2017-10-04T23:28:56.650Z,94587.38
2017-10-04T23:31:24.349Z,94589.30
2017-10-04T23:33:52.119Z,94589.26
2017-10-04T23:36:19.849Z,94583.12
2017-10-04T23:38:47.536Z,94582.70
2017-10-04T23:41:15.249Z,94582.13
2017-10-04T23:43:43.093Z,94586.20
2017-10-04T23:46:10.816Z,94576.02
2017-10-04T23:48:38.533Z,94576.95
2017-10-04T23:51:06.283Z,94579.63
2017-10-04T23:53:34.058Z,94588.02
2017-10-04T23:56:01.734Z,94577.65
2017-10-04T23:58:29.422Z,94571.55
